sensor_id;sensor_type;location;lat;lon;timestamp;pressure;altitude;pressure_sealevel;temperature;humidity
85094;BME280;75432;49.056;12.004;2024-01-30T00:00:00;97893.31;;;-1.16;82.87
85094;BME280;75432;49.056;12.004;2024-01-30T00:02:30;97854.41;;;-1.40;83.04
85094;BME280;75432;49.056;12.004;2024-01-30T00:04:57;97855.94;;;-1.47;82.65
85094;BME280;75432;49.056;12.004;2024-01-30T00:07:23;97810.69;;;-1.78;82.91
85094;BME280;75432;49.056;12.004;2024-01-30T00:09:50;97910.31;;;-1.20;83.08
85094;BME280;75432;49.056;12.004;2024-01-30T00:12:16;97907.00;;;-1.22;83.21
85094;BME280;75432;49.056;12.004;2024-01-30T00:14:43;97867.41;;;-1.48;83.22
85094;BME280;75432;49.056;12.004;2024-01-30T00:17:10;98118.41;;;0.05;83.52
85094;BME280;75432;49.056;12.004;2024-01-30T00:19:36;98083.06;;;-0.20;83.63
85094;BME280;75432;49.056;12.004;2024-01-30T00:22:03;98113.13;;;0.05;83.67
85094;BME280;75432;49.056;12.004;2024-01-30T00:24:29;97866.44;;;-1.47;83.70
85094;BME280;75432;49.056;12.004;2024-01-30T00:26:56;97991.72;;;-1.01;83.79
85094;BME280;75432;49.056;12.004;2024-01-30T00:29:22;98119.38;;;0.04;83.84
85094;BME280;75432;49.056;12.004;2024-01-30T00:31:49;98123.66;;;0.05;83.71
85094;BME280;75432;49.056;12.004;2024-01-30T00:34:16;98025.44;;;-0.50;83.94
85094;BME280;75432;49.056;12.004;2024-01-30T00:36:42;97840.78;;;-1.72;83.60
85094;BME280;75432;49.056;12.004;2024-01-30T00:39:09;98087.19;;;-0.17;83.83
85094;BME280;75432;49.056;12.004;2024-01-30T00:41:36;97865.31;;;-1.54;84.04
85094;BME280;75432;49.056;12.004;2024-01-30T00:44:02;98119.00;;;-0.01;84.19
85094;BME280;75432;49.056;12.004;2024-01-30T00:46:29;98125.22;;;-0.02;84.13
85094;BME280;75432;49.056;12.004;2024-01-30T00:48:55;97854.56;;;-1.61;84.16
85094;BME280;75432;49.056;12.004;2024-01-30T00:51:22;97866.56;;;-1.49;84.31
85094;BME280;75432;49.056;12.004;2024-01-30T00:53:48;97968.56;;;-0.88;84.25
85094;BME280;75432;49.056;12.004;2024-01-30T00:56:15;97953.94;;;-1.00;84.34
85094;BME280;75432;49.056;12.004;2024-01-30T00:58:44;98036.78;;;-0.50;84.27
85094;BME280;75432;49.056;12.004;2024-01-30T01:01:11;97847.81;;;-1.63;84.07
85094;BME280;75432;49.056;12.004;2024-01-30T01:03:37;97851.13;;;-1.61;84.22
85094;BME280;75432;49.056;12.004;2024-01-30T01:06:04;98112.06;;;-0.02;84.55
85094;BME280;75432;49.056;12.004;2024-01-30T01:08:31;97851.13;;;-1.61;84.38
85094;BME280;75432;49.056;12.004;2024-01-30T01:10:57;98070.72;;;-0.46;84.69
85094;BME280;75432;49.056;12.004;2024-01-30T01:13:24;97976.44;;;-0.88;84.58
85094;BME280;75432;49.056;12.004;2024-01-30T01:15:50;97962.09;;;-0.93;85.09
85094;BME280;75432;49.056;12.004;2024-01-30T01:18:17;97980.72;;;-0.87;84.62
85094;BME280;75432;49.056;12.004;2024-01-30T01:20:43;98099.50;;;-0.08;84.90
85094;BME280;75432;49.056;12.004;2024-01-30T01:23:10;97885.06;;;-1.40;85.04
85094;BME280;75432;49.056;12.004;2024-01-30T01:25:36;98107.41;;;-0.08;84.85
85094;BME280;75432;49.056;12.004;2024-01-30T01:28:03;97828.06;;;-1.77;84.84
85094;BME280;75432;49.056;12.004;2024-01-30T01:30:30;97848.25;;;-1.68;84.85
85094;BME280;75432;49.056;12.004;2024-01-30T01:32:56;97728.38;;;-2.43;84.95
85094;BME280;75432;49.056;12.004;2024-01-30T01:35:26;98034.91;;;-0.67;85.02
85094;BME280;75432;49.056;12.004;2024-01-30T01:37:53;97994.28;;;-0.82;85.25
85094;BME280;75432;49.056;12.004;2024-01-30T01:40:26;97857.38;;;-1.72;85.19
85094;BME280;75432;49.056;12.004;2024-01-30T01:42:53;97842.19;;;-1.78;85.56
85094;BME280;75432;49.056;12.004;2024-01-30T01:45:21;97982.28;;;-0.94;85.40
85094;BME280;75432;49.056;12.004;2024-01-30T01:47:50;97851.81;;;-1.69;85.55
85094;BME280;75432;49.056;12.004;2024-01-30T01:50:18;97814.72;;;-1.93;85.59
85094;BME280;75432;49.056;12.004;2024-01-30T01:52:47;97817.75;;;-1.88;85.54
85094;BME280;75432;49.056;12.004;2024-01-30T01:55:15;97970.69;;;-1.01;85.66
85094;BME280;75432;49.056;12.004;2024-01-30T01:57:44;97821.31;;;-1.89;85.61
85094;BME280;75432;49.056;12.004;2024-01-30T02:00:12;97837.19;;;-1.81;85.76
85094;BME280;75432;49.056;12.004;2024-01-30T02:02:38;97798.44;;;-2.06;85.84
85094;BME280;75432;49.056;12.004;2024-01-30T02:05:05;98110.47;;;-0.22;85.96
85094;BME280;75432;49.056;12.004;2024-01-30T02:07:32;97988.63;;;-0.87;85.99
85094;BME280;75432;49.056;12.004;2024-01-30T02:09:59;97943.22;;;-1.16;85.95
85094;BME280;75432;49.056;12.004;2024-01-30T02:12:25;98101.50;;;-0.29;85.76
85094;BME280;75432;49.056;12.004;2024-01-30T02:14:52;97764.38;;;-2.35;85.80
85094;BME280;75432;49.056;12.004;2024-01-30T02:17:19;98050.09;;;-0.61;86.23
85094;BME280;75432;49.056;12.004;2024-01-30T02:19:46;97882.91;;;-1.64;86.46
85094;BME280;75432;49.056;12.004;2024-01-30T02:22:13;97798.44;;;-2.16;86.42
85094;BME280;75432;49.056;12.004;2024-01-30T02:24:40;97794.91;;;-2.24;86.55
85094;BME280;75432;49.056;12.004;2024-01-30T02:27:06;98003.00;;;-0.91;86.28
85094;BME280;75432;49.056;12.004;2024-01-30T02:29:33;98025.66;;;-0.71;86.77
85094;BME280;75432;49.056;12.004;2024-01-30T02:31:59;98050.22;;;-0.53;86.28
85094;BME280;75432;49.056;12.004;2024-01-30T02:34:26;97731.28;;;-2.46;86.13
85094;BME280;75432;49.056;12.004;2024-01-30T02:36:53;97996.50;;;-0.87;86.67
85094;BME280;75432;49.056;12.004;2024-01-30T02:39:19;98058.88;;;-0.79;86.53
85094;BME280;75432;49.056;12.004;2024-01-30T02:41:46;97926.25;;;-1.31;86.59
85094;BME280;75432;49.056;12.004;2024-01-30T02:44:12;98084.50;;;-0.35;86.65
85094;BME280;75432;49.056;12.004;2024-01-30T02:46:39;98015.19;;;-0.90;86.60
85094;BME280;75432;49.056;12.004;2024-01-30T02:49:05;98017.06;;;-0.73;86.41
85094;BME280;75432;49.056;12.004;2024-01-30T02:51:32;97841.06;;;-1.85;86.40
85094;BME280;75432;49.056;12.004;2024-01-30T02:53:58;98052.38;;;-0.85;86.66
85094;BME280;75432;49.056;12.004;2024-01-30T02:56:25;97817.06;;;-2.00;86.20
85094;BME280;75432;49.056;12.004;2024-01-30T02:58:51;98031.03;;;-0.72;86.55
85094;BME280;75432;49.056;12.004;2024-01-30T03:01:18;98071.78;;;-0.39;86.72
85094;BME280;75432;49.056;12.004;2024-01-30T03:03:44;97775.84;;;-2.26;86.51
85094;BME280;75432;49.056;12.004;2024-01-30T03:06:11;97977.06;;;-1.23;86.56
85094;BME280;75432;49.056;12.004;2024-01-30T03:08:37;98015.44;;;-0.83;86.59
85094;BME280;75432;49.056;12.004;2024-01-30T03:11:04;98038.91;;;-0.63;86.69
85094;BME280;75432;49.056;12.004;2024-01-30T03:13:30;97875.44;;;-1.69;86.56
85094;BME280;75432;49.056;12.004;2024-01-30T03:15:57;97763.84;;;-2.38;86.45
85094;BME280;75432;49.056;12.004;2024-01-30T03:18:23;97837.66;;;-1.95;86.42
85094;BME280;75432;49.056;12.004;2024-01-30T03:20:50;98007.97;;;-0.88;86.48
85094;BME280;75432;49.056;12.004;2024-01-30T03:23:16;97817.78;;;-2.07;86.88
85094;BME280;75432;49.056;12.004;2024-01-30T03:25:43;97987.53;;;-1.04;86.77
85094;BME280;75432;49.056;12.004;2024-01-30T03:28:09;98087.84;;;-0.42;86.77
85094;BME280;75432;49.056;12.004;2024-01-30T03:30:36;97710.47;;;-2.76;86.36
85094;BME280;75432;49.056;12.004;2024-01-30T03:33:02;97828.28;;;-2.07;86.23
85094;BME280;75432;49.056;12.004;2024-01-30T03:35:29;97762.88;;;-2.57;86.35
85094;BME280;75432;49.056;12.004;2024-01-30T03:37:55;97861.28;;;-2.14;86.46
85094;BME280;75432;49.056;12.004;2024-01-30T03:40:22;98013.28;;;-1.07;86.76
85094;BME280;75432;49.056;12.004;2024-01-30T03:42:48;97903.22;;;-1.76;86.56
85094;BME280;75432;49.056;12.004;2024-01-30T03:45:15;97831.84;;;-2.27;86.59
85094;BME280;75432;49.056;12.004;2024-01-30T03:47:43;97970.47;;;-1.36;86.72
85094;BME280;75432;49.056;12.004;2024-01-30T03:50:10;98084.56;;;-0.64;87.20
85094;BME280;75432;49.056;12.004;2024-01-30T03:52:36;98009.69;;;-1.06;87.15
85094;BME280;75432;49.056;12.004;2024-01-30T03:55:03;97935.53;;;-1.56;86.83
85094;BME280;75432;49.056;12.004;2024-01-30T03:57:30;97827.03;;;-2.22;87.13
85094;BME280;75432;49.056;12.004;2024-01-30T03:59:56;98110.31;;;-0.67;87.61
85094;BME280;75432;49.056;12.004;2024-01-30T04:02:26;97989.66;;;-1.26;87.21
85094;BME280;75432;49.056;12.004;2024-01-30T04:04:52;97523.47;;;-4.17;86.97
85094;BME280;75432;49.056;12.004;2024-01-30T04:07:19;97776.69;;;-2.64;87.24
85094;BME280;75432;49.056;12.004;2024-01-30T04:09:49;98085.03;;;-0.78;87.55
85094;BME280;75432;49.056;12.004;2024-01-30T04:12:16;97863.31;;;-2.08;87.70
85094;BME280;75432;49.056;12.004;2024-01-30T04:14:43;97781.63;;;-2.61;87.37
85094;BME280;75432;49.056;12.004;2024-01-30T04:17:10;98090.13;;;-0.76;88.60
85094;BME280;75432;49.056;12.004;2024-01-30T04:19:39;98001.97;;;-1.27;88.09
85094;BME280;75432;49.056;12.004;2024-01-30T04:22:06;97999.34;;;-1.27;87.91
85094;BME280;75432;49.056;12.004;2024-01-30T04:24:32;98077.97;;;-0.77;88.33
85094;BME280;75432;49.056;12.004;2024-01-30T04:26:59;97752.94;;;-2.72;87.76
85094;BME280;75432;49.056;12.004;2024-01-30T04:29:25;97810.06;;;-2.37;87.77
85094;BME280;75432;49.056;12.004;2024-01-30T04:31:52;98009.69;;;-1.16;88.11
85094;BME280;75432;49.056;12.004;2024-01-30T04:34:18;98011.09;;;-1.21;87.99
85094;BME280;75432;49.056;12.004;2024-01-30T04:36:45;98031.69;;;-1.26;87.98
85094;BME280;75432;49.056;12.004;2024-01-30T04:39:12;97822.50;;;-2.30;88.11
85094;BME280;75432;49.056;12.004;2024-01-30T04:41:39;98036.50;;;-0.93;88.19
85094;BME280;75432;49.056;12.004;2024-01-30T04:44:06;97853.28;;;-2.13;87.68
85094;BME280;75432;49.056;12.004;2024-01-30T04:46:33;97563.25;;;-3.85;87.52
85094;BME280;75432;49.056;12.004;2024-01-30T04:49:00;98060.38;;;-0.77;88.23
85094;BME280;75432;49.056;12.004;2024-01-30T04:51:27;97819.44;;;-2.25;87.93
85094;BME280;75432;49.056;12.004;2024-01-30T04:53:54;97840.56;;;-2.08;88.07
85094;BME280;75432;49.056;12.004;2024-01-30T04:56:21;98058.72;;;-0.68;88.96
85094;BME280;75432;49.056;12.004;2024-01-30T04:58:47;97938.72;;;-1.62;88.67
85094;BME280;75432;49.056;12.004;2024-01-30T05:01:17;97765.63;;;-2.58;88.42
85094;BME280;75432;49.056;12.004;2024-01-30T05:03:44;97931.66;;;-1.62;88.32
85094;BME280;75432;49.056;12.004;2024-01-30T05:06:11;97860.56;;;-2.07;88.49
85094;BME280;75432;49.056;12.004;2024-01-30T05:08:37;97831.47;;;-2.32;88.19
85094;BME280;75432;49.056;12.004;2024-01-30T05:11:05;97964.28;;;-1.55;88.40
85094;BME280;75432;49.056;12.004;2024-01-30T05:13:32;98059.91;;;-1.28;88.31
85094;BME280;75432;49.056;12.004;2024-01-30T05:15:59;98032.09;;;-1.12;88.33
85094;BME280;75432;49.056;12.004;2024-01-30T05:18:27;97729.78;;;-2.96;89.07
85094;BME280;75432;49.056;12.004;2024-01-30T05:20:54;98066.78;;;-0.89;89.32
85094;BME280;75432;49.056;12.004;2024-01-30T05:23:21;98026.31;;;-1.34;89.03
85094;BME280;75432;49.056;12.004;2024-01-30T05:25:47;97959.72;;;-1.72;88.45
85094;BME280;75432;49.056;12.004;2024-01-30T05:28:15;97773.91;;;-2.82;88.74
85094;BME280;75432;49.056;12.004;2024-01-30T05:30:42;97980.84;;;-1.54;88.41
85094;BME280;75432;49.056;12.004;2024-01-30T05:33:08;98048.41;;;-1.27;88.64
85094;BME280;75432;49.056;12.004;2024-01-30T05:35:36;97800.25;;;-2.74;88.72
85094;BME280;75432;49.056;12.004;2024-01-30T05:38:02;98030.59;;;-1.33;88.95
85094;BME280;75432;49.056;12.004;2024-01-30T05:40:29;97774.44;;;-2.88;89.13
85094;BME280;75432;49.056;12.004;2024-01-30T05:42:56;98057.56;;;-1.12;89.27
85094;BME280;75432;49.056;12.004;2024-01-30T05:45:27;97807.84;;;-2.71;89.22
85094;BME280;75432;49.056;12.004;2024-01-30T05:47:53;97920.09;;;-1.98;89.59
85094;BME280;75432;49.056;12.004;2024-01-30T05:50:20;97738.44;;;-3.15;89.42
85094;BME280;75432;49.056;12.004;2024-01-30T05:52:49;98039.28;;;-1.42;89.94
85094;BME280;75432;49.056;12.004;2024-01-30T05:55:16;97960.28;;;-1.97;89.68
85094;BME280;75432;49.056;12.004;2024-01-30T05:57:42;98014.44;;;-1.67;89.60
85094;BME280;75432;49.056;12.004;2024-01-30T06:00:09;98080.22;;;-1.30;89.62
85094;BME280;75432;49.056;12.004;2024-01-30T06:02:36;98143.53;;;-1.33;89.42
85094;BME280;75432;49.056;12.004;2024-01-30T06:05:02;98101.50;;;-1.33;89.26
85094;BME280;75432;49.056;12.004;2024-01-30T06:07:29;97989.22;;;-2.08;89.28
85094;BME280;75432;49.056;12.004;2024-01-30T06:10:02;98069.41;;;-1.66;89.44
85094;BME280;75432;49.056;12.004;2024-01-30T06:12:29;98091.09;;;-1.64;89.29
85094;BME280;75432;49.056;12.004;2024-01-30T06:14:55;97845.00;;;-3.06;89.23
85094;BME280;75432;49.056;12.004;2024-01-30T06:17:23;97810.47;;;-3.30;89.12
85094;BME280;75432;49.056;12.004;2024-01-30T06:19:50;98069.91;;;-1.91;89.09
85094;BME280;75432;49.056;12.004;2024-01-30T06:22:16;98064.44;;;-1.78;89.53
85094;BME280;75432;49.056;12.004;2024-01-30T06:24:43;98118.63;;;-1.49;89.67
85094;BME280;75432;49.056;12.004;2024-01-30T06:27:11;98063.59;;;-1.79;89.50
85094;BME280;75432;49.056;12.004;2024-01-30T06:29:38;97957.44;;;-2.44;88.90
85094;BME280;75432;49.056;12.004;2024-01-30T06:32:05;97969.50;;;-2.62;89.77
85094;BME280;75432;49.056;12.004;2024-01-30T06:34:31;97900.47;;;-2.81;89.20
85094;BME280;75432;49.056;12.004;2024-01-30T06:36:58;97983.81;;;-2.26;89.71
85094;BME280;75432;49.056;12.004;2024-01-30T06:39:26;97997.66;;;-2.14;90.27
85094;BME280;75432;49.056;12.004;2024-01-30T06:41:52;98037.69;;;-2.12;90.73
85094;BME280;75432;49.056;12.004;2024-01-30T06:44:19;97852.69;;;-3.04;90.42
85094;BME280;75432;49.056;12.004;2024-01-30T06:46:45;97955.22;;;-2.38;90.38
85094;BME280;75432;49.056;12.004;2024-01-30T06:49:12;98111.19;;;-1.43;90.42
85094;BME280;75432;49.056;12.004;2024-01-30T06:51:38;97983.69;;;-2.24;90.36
85094;BME280;75432;49.056;12.004;2024-01-30T06:54:05;97853.75;;;-3.16;89.64
85094;BME280;75432;49.056;12.004;2024-01-30T06:56:31;97769.03;;;-3.55;90.01
85094;BME280;75432;49.056;12.004;2024-01-30T06:58:58;97772.06;;;-3.60;89.95
85094;BME280;75432;49.056;12.004;2024-01-30T07:01:29;98120.97;;;-1.46;90.14
85094;BME280;75432;49.056;12.004;2024-01-30T07:03:57;98154.28;;;-1.46;90.61
85094;BME280;75432;49.056;12.004;2024-01-30T07:06:24;98076.44;;;-1.76;90.81
85094;BME280;75432;49.056;12.004;2024-01-30T07:08:50;97887.91;;;-2.88;90.44
85094;BME280;75432;49.056;12.004;2024-01-30T07:11:20;98126.94;;;-1.43;90.92
85094;BME280;75432;49.056;12.004;2024-01-30T07:13:48;97887.22;;;-2.90;90.07
85094;BME280;75432;49.056;12.004;2024-01-30T07:16:15;97853.94;;;-3.08;90.17
85094;BME280;75432;49.056;12.004;2024-01-30T07:18:42;97739.38;;;-3.75;90.15
85094;BME280;75432;49.056;12.004;2024-01-30T07:21:09;97791.97;;;-3.38;90.09
85094;BME280;75432;49.056;12.004;2024-01-30T07:23:36;98088.47;;;-1.54;90.13
85094;BME280;75432;49.056;12.004;2024-01-30T07:26:05;98125.56;;;-1.28;90.27
85094;BME280;75432;49.056;12.004;2024-01-30T07:28:33;97819.31;;;-3.12;90.00
85094;BME280;75432;49.056;12.004;2024-01-30T07:31:00;97840.47;;;-2.94;89.81
85094;BME280;75432;49.056;12.004;2024-01-30T07:33:26;97994.50;;;-1.99;90.14
85094;BME280;75432;49.056;12.004;2024-01-30T07:35:53;98054.50;;;-1.56;90.01
85094;BME280;75432;49.056;12.004;2024-01-30T07:38:20;97871.41;;;-2.69;90.15
85094;BME280;75432;49.056;12.004;2024-01-30T07:40:46;97931.38;;;-2.26;90.18
85094;BME280;75432;49.056;12.004;2024-01-30T07:43:13;98128.63;;;-0.94;90.57
85094;BME280;75432;49.056;12.004;2024-01-30T07:45:39;98045.78;;;-1.47;90.16
85094;BME280;75432;49.056;12.004;2024-01-30T07:48:06;98016.63;;;-1.53;90.29
85094;BME280;75432;49.056;12.004;2024-01-30T07:50:33;98104.69;;;-1.20;90.29
85094;BME280;75432;49.056;12.004;2024-01-30T07:53:00;97879.88;;;-2.27;89.86
85094;BME280;75432;49.056;12.004;2024-01-30T07:55:27;97779.13;;;-2.92;89.61
85094;BME280;75432;49.056;12.004;2024-01-30T07:57:55;97944.13;;;-1.83;89.69
85094;BME280;75432;49.056;12.004;2024-01-30T08:00:22;98035.28;;;-1.27;89.41
85094;BME280;75432;49.056;12.004;2024-01-30T08:02:48;98134.13;;;-0.69;89.60
85094;BME280;75432;49.056;12.004;2024-01-30T08:05:15;97929.47;;;-1.76;89.23
85094;BME280;75432;49.056;12.004;2024-01-30T08:07:42;98123.47;;;-0.77;89.02
85094;BME280;75432;49.056;12.004;2024-01-30T08:10:12;98078.78;;;-0.77;88.75
85094;BME280;75432;49.056;12.004;2024-01-30T08:12:41;98163.69;;;-0.28;88.56
85094;BME280;75432;49.056;12.004;2024-01-30T08:15:08;97885.97;;;-1.88;88.47
85094;BME280;75432;49.056;12.004;2024-01-30T08:17:35;98060.13;;;-0.74;88.61
85094;BME280;75432;49.056;12.004;2024-01-30T08:20:01;98077.69;;;-0.84;88.33
85094;BME280;75432;49.056;12.004;2024-01-30T08:22:30;98137.59;;;-0.12;88.33
85094;BME280;75432;49.056;12.004;2024-01-30T08:24:57;98148.63;;;0.01;88.25
85094;BME280;75432;49.056;12.004;2024-01-30T08:27:24;98016.22;;;-0.73;88.22
85094;BME280;75432;49.056;12.004;2024-01-30T08:29:50;98078.38;;;-0.26;88.27
85094;BME280;75432;49.056;12.004;2024-01-30T08:32:16;98111.78;;;0.01;87.75
85094;BME280;75432;49.056;12.004;2024-01-30T08:34:43;98149.63;;;0.27;87.49
85094;BME280;75432;49.056;12.004;2024-01-30T08:37:10;97833.69;;;-1.53;87.52
85094;BME280;75432;49.056;12.004;2024-01-30T08:39:37;97908.16;;;-0.98;87.50
85094;BME280;75432;49.056;12.004;2024-01-30T08:42:04;97839.13;;;-1.27;86.90
85094;BME280;75432;49.056;12.004;2024-01-30T08:44:30;97887.38;;;-0.91;86.74
85094;BME280;75432;49.056;12.004;2024-01-30T08:46:57;98145.22;;;0.73;87.20
85094;BME280;75432;49.056;12.004;2024-01-30T08:49:25;97856.97;;;-0.93;86.51
85094;BME280;75432;49.056;12.004;2024-01-30T08:51:52;97939.97;;;-0.36;86.24
85094;BME280;75432;49.056;12.004;2024-01-30T08:54:18;98150.09;;;0.85;85.46
85094;BME280;75432;49.056;12.004;2024-01-30T08:56:45;98103.56;;;0.59;85.67
85094;BME280;75432;49.056;12.004;2024-01-30T08:59:11;98083.41;;;0.50;85.98
85094;BME280;75432;49.056;12.004;2024-01-30T09:01:39;97944.94;;;-0.33;85.81
85094;BME280;75432;49.056;12.004;2024-01-30T09:04:09;97902.22;;;-0.45;85.99
85094;BME280;75432;49.056;12.004;2024-01-30T09:06:36;98044.63;;;0.42;85.97
85094;BME280;75432;49.056;12.004;2024-01-30T09:09:05;97991.56;;;0.19;85.79
85094;BME280;75432;49.056;12.004;2024-01-30T09:11:32;98091.09;;;0.96;85.62
85094;BME280;75432;49.056;12.004;2024-01-30T09:13:58;97931.97;;;0.00;85.38
85094;BME280;75432;49.056;12.004;2024-01-30T09:16:25;98138.44;;;1.41;85.18
85094;BME280;75432;49.056;12.004;2024-01-30T09:18:51;97878.13;;;-0.23;84.85
85094;BME280;75432;49.056;12.004;2024-01-30T09:21:18;97844.13;;;-0.34;84.40
85094;BME280;75432;49.056;12.004;2024-01-30T09:23:45;98007.88;;;0.76;84.62
85094;BME280;75432;49.056;12.004;2024-01-30T09:26:11;97889.78;;;0.10;83.59
85094;BME280;75432;49.056;12.004;2024-01-30T09:28:38;98067.00;;;1.17;83.46
85094;BME280;75432;49.056;12.004;2024-01-30T09:31:09;97934.53;;;0.45;83.81
85094;BME280;75432;49.056;12.004;2024-01-30T09:33:36;98084.22;;;1.47;84.33
85094;BME280;75432;49.056;12.004;2024-01-30T09:36:03;98086.13;;;1.36;83.86
85094;BME280;75432;49.056;12.004;2024-01-30T09:38:30;97839.31;;;-0.03;83.29
85094;BME280;75432;49.056;12.004;2024-01-30T09:41:01;97898.63;;;0.44;82.25
85094;BME280;75432;49.056;12.004;2024-01-30T09:43:32;97848.31;;;0.12;82.96
85094;BME280;75432;49.056;12.004;2024-01-30T09:46:00;97867.22;;;0.25;82.98
85094;BME280;75432;49.056;12.004;2024-01-30T09:48:30;97914.63;;;0.51;82.96
85094;BME280;75432;49.056;12.004;2024-01-30T09:50:57;98098.03;;;1.92;82.58
85094;BME280;75432;49.056;12.004;2024-01-30T09:53:24;98149.03;;;2.26;81.64
85094;BME280;75432;49.056;12.004;2024-01-30T09:55:51;97944.75;;;0.92;81.85
85094;BME280;75432;49.056;12.004;2024-01-30T09:58:17;97906.66;;;0.61;81.99
85094;BME280;75432;49.056;12.004;2024-01-30T10:00:44;98042.44;;;1.68;81.45
85094;BME280;75432;49.056;12.004;2024-01-30T10:03:11;98152.44;;;2.53;81.20
85094;BME280;75432;49.056;12.004;2024-01-30T10:05:40;97999.44;;;1.75;78.68
85094;BME280;75432;49.056;12.004;2024-01-30T10:08:07;98139.78;;;2.72;80.24
85094;BME280;75432;49.056;12.004;2024-01-30T10:10:36;97832.88;;;0.94;79.53
85094;BME280;75432;49.056;12.004;2024-01-30T10:13:03;97905.16;;;1.52;79.00
85094;BME280;75432;49.056;12.004;2024-01-30T10:15:31;97692.50;;;0.34;79.21
85094;BME280;75432;49.056;12.004;2024-01-30T10:17:59;98143.34;;;3.38;79.50
85094;BME280;75432;49.056;12.004;2024-01-30T10:20:25;98146.81;;;3.54;76.97
85094;BME280;75432;49.056;12.004;2024-01-30T10:22:52;98106.28;;;3.38;77.54
85094;BME280;75432;49.056;12.004;2024-01-30T10:25:21;98139.38;;;3.58;77.70
85094;BME280;75432;49.056;12.004;2024-01-30T10:27:52;97859.91;;;2.05;76.93
85094;BME280;75432;49.056;12.004;2024-01-30T10:30:19;97977.34;;;2.99;76.49
85094;BME280;75432;49.056;12.004;2024-01-30T10:32:46;98034.19;;;3.44;76.58
85094;BME280;75432;49.056;12.004;2024-01-30T10:35:12;97854.47;;;2.47;75.54
85094;BME280;75432;49.056;12.004;2024-01-30T10:37:39;97903.78;;;2.86;75.89
85094;BME280;75432;49.056;12.004;2024-01-30T10:40:07;98009.28;;;3.69;75.41
85094;BME280;75432;49.056;12.004;2024-01-30T10:42:36;98124.47;;;4.36;75.66
85094;BME280;75432;49.056;12.004;2024-01-30T10:45:09;97874.53;;;2.96;73.46
85094;BME280;75432;49.056;12.004;2024-01-30T10:47:36;98096.38;;;4.50;72.76
85094;BME280;75432;49.056;12.004;2024-01-30T10:50:03;98109.66;;;4.80;74.80
85094;BME280;75432;49.056;12.004;2024-01-30T10:52:32;98075.25;;;4.64;73.26
85094;BME280;75432;49.056;12.004;2024-01-30T10:54:59;97961.38;;;4.17;74.47
85094;BME280;75432;49.056;12.004;2024-01-30T10:57:26;98075.84;;;5.05;72.80
85094;BME280;75432;49.056;12.004;2024-01-30T10:59:56;98110.00;;;5.46;70.10
85094;BME280;75432;49.056;12.004;2024-01-30T11:02:24;97924.22;;;4.71;72.38
85094;BME280;75432;49.056;12.004;2024-01-30T11:04:56;98023.06;;;5.92;71.35
85094;BME280;75432;49.056;12.004;2024-01-30T11:07:25;97855.28;;;6.16;69.91
85094;BME280;75432;49.056;12.004;2024-01-30T11:09:59;97999.22;;;8.50;65.24
85094;BME280;75432;49.056;12.004;2024-01-30T11:12:31;97882.19;;;9.19;62.05
85094;BME280;75432;49.056;12.004;2024-01-30T11:15:03;98092.06;;;11.54;58.75
85094;BME280;75432;49.056;12.004;2024-01-30T11:17:43;98083.22;;;12.21;53.73
85094;BME280;75432;49.056;12.004;2024-01-30T11:22:54;98041.69;;;12.41;54.38
85094;BME280;75432;49.056;12.004;2024-01-30T11:25:21;97818.25;;;11.55;55.48
85094;BME280;75432;49.056;12.004;2024-01-30T11:27:53;98053.69;;;13.35;47.38
85094;BME280;75432;49.056;12.004;2024-01-30T11:30:24;97917.75;;;12.68;49.01
85094;BME280;75432;49.056;12.004;2024-01-30T11:33:03;98023.53;;;13.45;46.77
85094;BME280;75432;49.056;12.004;2024-01-30T11:35:32;97875.59;;;12.09;52.32
85094;BME280;75432;49.056;12.004;2024-01-30T11:38:00;98073.19;;;11.91;52.14
85094;BME280;75432;49.056;12.004;2024-01-30T11:40:28;98083.38;;;12.44;51.16
85094;BME280;75432;49.056;12.004;2024-01-30T11:42:56;97860.41;;;12.32;49.80
85094;BME280;75432;49.056;12.004;2024-01-30T11:45:24;98008.09;;;13.63;48.50
85094;BME280;75432;49.056;12.004;2024-01-30T11:47:51;97812.75;;;12.69;46.79
85094;BME280;75432;49.056;12.004;2024-01-30T11:50:17;97970.09;;;14.46;46.23
85094;BME280;75432;49.056;12.004;2024-01-30T11:52:44;98004.94;;;15.38;45.19
85094;BME280;75432;49.056;12.004;2024-01-30T11:55:12;97985.00;;;14.37;44.47
85094;BME280;75432;49.056;12.004;2024-01-30T11:57:39;98022.28;;;14.17;44.39
85094;BME280;75432;49.056;12.004;2024-01-30T12:00:13;98027.25;;;13.32;45.14
85094;BME280;75432;49.056;12.004;2024-01-30T12:02:40;98019.63;;;11.29;47.90
85094;BME280;75432;49.056;12.004;2024-01-30T12:05:07;97847.31;;;8.55;51.20
85094;BME280;75432;49.056;12.004;2024-01-30T12:07:33;98071.19;;;8.84;53.35
85094;BME280;75432;49.056;12.004;2024-01-30T12:10:00;97832.16;;;6.87;54.98
85094;BME280;75432;49.056;12.004;2024-01-30T12:12:28;97829.56;;;6.44;56.80
85094;BME280;75432;49.056;12.004;2024-01-30T12:14:55;97903.56;;;7.11;56.30
85094;BME280;75432;49.056;12.004;2024-01-30T12:17:34;97823.22;;;6.45;56.25
85094;BME280;75432;49.056;12.004;2024-01-30T12:20:14;98059.31;;;7.71;56.64
85094;BME280;75432;49.056;12.004;2024-01-30T12:22:43;98052.78;;;7.03;58.60
85094;BME280;75432;49.056;12.004;2024-01-30T12:25:11;97867.31;;;5.61;58.97
85094;BME280;75432;49.056;12.004;2024-01-30T12:27:38;97717.88;;;4.81;58.81
85094;BME280;75432;49.056;12.004;2024-01-30T12:30:06;98059.13;;;6.81;59.64
85094;BME280;75432;49.056;12.004;2024-01-30T12:32:37;97986.22;;;6.03;60.80
85094;BME280;75432;49.056;12.004;2024-01-30T12:35:07;98047.16;;;6.70;60.58
85094;BME280;75432;49.056;12.004;2024-01-30T12:37:34;97783.72;;;5.07;60.43
85094;BME280;75432;49.056;12.004;2024-01-30T12:40:01;97741.56;;;4.83;60.17
85094;BME280;75432;49.056;12.004;2024-01-30T12:42:28;98047.66;;;6.80;60.53
85094;BME280;75432;49.056;12.004;2024-01-30T12:44:57;98040.31;;;6.82;60.92
85094;BME280;75432;49.056;12.004;2024-01-30T12:47:24;97970.44;;;6.38;60.74
85094;BME280;75432;49.056;12.004;2024-01-30T12:49:50;97996.94;;;6.10;62.27
85094;BME280;75432;49.056;12.004;2024-01-30T12:52:21;98001.03;;;6.27;61.55
85094;BME280;75432;49.056;12.004;2024-01-30T12:54:49;97932.59;;;6.00;61.51